createdAt,value
2023-03-23T15:58:12.060Z,1.50
2023-03-23T16:00:40.866Z,1.50
2023-03-23T16:03:12.167Z,1.80
2023-03-23T16:05:39.039Z,1.73
2023-03-23T16:08:06.251Z,1.50
2023-03-23T16:10:32.680Z,2.28
2023-03-23T16:12:59.078Z,2.38
2023-03-23T16:15:25.543Z,2.00
2023-03-23T16:17:53.466Z,1.90
2023-03-23T16:20:21.839Z,1.63
2023-03-23T16:22:49.164Z,1.88
2023-03-23T16:25:16.811Z,1.70
2023-03-23T16:27:43.535Z,1.73
2023-03-23T16:30:15.089Z,1.67
2023-03-23T16:35:09.085Z,1.90
2023-03-23T16:37:35.803Z,1.92
2023-03-23T16:40:02.803Z,2.30
2023-03-23T16:42:29.250Z,2.05
2023-03-23T16:44:55.668Z,2.50
2023-03-23T16:47:22.415Z,2.17
2023-03-23T16:49:49.081Z,2.13
2023-03-23T16:52:16.970Z,1.85
2023-03-23T16:54:43.647Z,1.45
2023-03-23T16:57:10.068Z,2.13
2023-03-23T16:59:36.494Z,2.05
2023-03-23T17:02:03.010Z,2.20
2023-03-23T17:04:29.442Z,2.00
2023-03-23T17:06:56.152Z,1.95
2023-03-23T17:09:23.854Z,2.03
2023-03-23T17:11:50.267Z,2.40
2023-03-23T17:14:16.698Z,2.95
2023-03-23T17:16:43.121Z,2.50
2023-03-23T17:19:09.542Z,2.20
2023-03-23T17:21:35.908Z,2.50
2023-03-23T17:24:02.716Z,2.28
2023-03-23T17:26:30.394Z,2.28
2023-03-23T17:28:56.928Z,2.40
2023-03-23T17:31:23.672Z,2.38
2023-03-23T17:33:50.143Z,2.80
2023-03-23T17:36:16.605Z,2.58
2023-03-23T17:38:43.113Z,2.95
2023-03-23T17:41:09.517Z,3.08
2023-03-23T17:43:37.718Z,2.90
2023-03-23T17:46:04.472Z,2.75
2023-03-23T17:48:30.936Z,2.60
2023-03-23T17:50:57.314Z,2.78
2023-03-23T17:53:23.975Z,3.05
2023-03-23T17:55:50.341Z,3.20
2023-03-23T17:58:16.737Z,2.80
2023-03-23T18:00:45.200Z,2.45
2023-03-23T18:03:11.678Z,2.60
2023-03-23T18:05:38.286Z,3.10
2023-03-23T18:08:05.553Z,3.75
2023-03-23T18:10:32.139Z,3.17
2023-03-23T18:12:58.480Z,6.05
2023-03-23T18:15:28.420Z,4.80
2023-03-23T18:17:57.454Z,4.10
2023-03-23T18:20:23.941Z,4.15
2023-03-23T18:22:50.343Z,3.72
2023-03-23T18:25:16.765Z,4.38
2023-03-23T18:27:43.138Z,4.68
2023-03-23T18:30:10.611Z,4.32
2023-03-23T18:32:37.736Z,4.20
2023-03-23T18:35:07.690Z,3.80
2023-03-23T18:37:34.488Z,3.75
2023-03-23T18:40:01.324Z,4.35
2023-03-23T18:42:27.852Z,4.20
2023-03-23T18:44:54.266Z,3.60
2023-03-23T18:47:20.769Z,3.38
2023-03-23T18:49:47.778Z,4.20
2023-03-23T18:52:15.529Z,5.13
2023-03-23T18:54:41.890Z,4.25
2023-03-23T18:57:08.303Z,3.95
2023-03-23T18:59:34.857Z,3.92
2023-03-23T19:02:01.269Z,3.63
2023-03-23T19:04:27.654Z,3.50
2023-03-23T19:06:54.040Z,3.65
2023-03-23T19:09:21.713Z,3.97
2023-03-23T19:11:48.116Z,3.65
2023-03-23T19:14:14.824Z,3.30
2023-03-23T19:16:41.620Z,3.55
2023-03-23T19:19:08.009Z,2.70
2023-03-23T19:21:34.954Z,2.50
2023-03-23T19:24:02.167Z,3.20
2023-03-23T19:26:33.882Z,2.97
2023-03-23T19:29:25.226Z,2.97
2023-03-23T19:31:49.393Z,2.63
2023-03-23T19:34:16.435Z,3.25
2023-03-23T19:36:43.288Z,3.05
2023-03-23T19:39:14.559Z,3.15
2023-03-23T19:41:42.683Z,3.33
2023-03-23T19:44:10.652Z,3.38
2023-03-23T19:46:37.513Z,2.63
2023-03-23T19:49:04.098Z,2.90
2023-03-23T19:51:30.683Z,3.17
2023-03-23T19:53:57.802Z,3.17
2023-03-23T19:56:24.594Z,2.92
2023-03-23T19:58:53.196Z,3.10
2023-03-23T20:01:19.645Z,3.05
2023-03-23T20:03:46.252Z,3.40
2023-03-23T20:06:13.899Z,3.35
2023-03-23T20:08:43.685Z,3.38
2023-03-23T20:11:12.026Z,3.05
2023-03-23T20:13:39.388Z,2.65
2023-03-23T20:16:09.034Z,2.63
2023-03-23T20:18:37.220Z,2.70
2023-03-23T20:21:06.885Z,2.45
2023-03-23T20:23:34.678Z,2.58
2023-03-23T20:26:04.394Z,2.53
2023-03-23T20:28:30.800Z,2.20
2023-03-23T20:31:17.039Z,2.85
2023-03-23T20:33:48.331Z,2.78
2023-03-23T20:36:28.506Z,2.65
2023-03-23T20:38:55.866Z,2.55
2023-03-23T20:41:22.258Z,2.58
2023-03-23T20:43:48.672Z,2.42
2023-03-23T20:46:15.061Z,2.60
2023-03-23T20:48:41.508Z,3.03
2023-03-23T20:51:10.092Z,3.35
2023-03-23T20:53:37.942Z,2.28
2023-03-23T20:56:06.090Z,2.63
2023-03-23T20:58:33.727Z,2.13
2023-03-23T21:01:01.850Z,2.58
2023-03-23T21:03:30.871Z,3.00
2023-03-23T21:05:58.018Z,2.95
2023-03-23T21:08:25.970Z,2.40
2023-03-23T21:10:52.340Z,2.92
2023-03-23T21:13:18.741Z,2.97
2023-03-23T21:15:45.583Z,2.70
2023-03-23T21:18:12.866Z,2.47
2023-03-23T21:20:39.628Z,2.90
2023-03-23T21:23:06.108Z,2.60
2023-03-23T21:25:35.434Z,2.20
2023-03-23T21:28:02.789Z,2.17
2023-03-23T21:30:30.134Z,2.00
2023-03-23T21:32:56.515Z,2.05
2023-03-23T21:35:23.034Z,2.60
2023-03-23T21:37:49.530Z,2.83
2023-03-23T21:40:17.155Z,2.80
2023-03-23T21:42:45.783Z,2.65
2023-03-23T21:45:14.530Z,2.45
2023-03-23T21:47:40.890Z,2.40
2023-03-23T21:50:11.584Z,2.20
2023-03-23T21:52:38.607Z,2.28
2023-03-23T21:55:05.772Z,2.08
2023-03-23T21:57:32.514Z,2.53
2023-03-23T22:00:00.274Z,2.50
2023-03-23T22:02:26.645Z,1.98
2023-03-23T22:04:54.686Z,2.22
2023-03-23T22:07:21.084Z,2.20
2023-03-23T22:09:47.442Z,1.90
2023-03-23T22:12:13.948Z,2.30
2023-03-23T22:14:40.419Z,2.30
2023-03-23T22:17:08.450Z,2.53
2023-03-23T22:19:35.443Z,2.30
2023-03-23T22:22:02.234Z,2.55
2023-03-23T22:24:28.639Z,2.28
2023-03-23T22:26:55.003Z,1.95
2023-03-23T22:29:21.572Z,2.63
2023-03-23T22:31:47.961Z,2.22
2023-03-23T22:34:15.707Z,2.20
2023-03-23T22:36:42.238Z,2.00
2023-03-23T22:39:09.166Z,2.25
2023-03-23T22:41:37.431Z,2.28
2023-03-23T22:44:04.253Z,2.10
2023-03-23T22:46:31.005Z,2.28
2023-03-23T22:48:57.370Z,2.13
2023-03-23T22:51:25.170Z,2.60
2023-03-23T22:53:51.653Z,2.10
2023-03-23T22:56:18.469Z,2.40
2023-03-23T22:58:45.160Z,2.30
2023-03-23T23:01:14.155Z,2.17
2023-03-23T23:03:40.754Z,2.08
2023-03-23T23:06:09.468Z,2.97
2023-03-23T23:08:37.597Z,2.47
2023-03-23T23:11:04.746Z,2.50
2023-03-23T23:13:33.253Z,2.53
2023-03-23T23:16:01.494Z,2.10
2023-03-23T23:18:28.451Z,2.60
2023-03-23T23:20:56.525Z,2.25
2023-03-23T23:23:24.201Z,1.92
2023-03-23T23:25:51.906Z,1.75
2023-03-23T23:28:19.147Z,2.30
2023-03-23T23:30:46.271Z,2.35
2023-03-23T23:33:13.038Z,2.10
2023-03-23T23:35:40.363Z,2.22
2023-03-23T23:38:08.015Z,2.30
2023-03-23T23:40:34.434Z,2.42
2023-03-23T23:43:03.063Z,2.13
2023-03-23T23:45:29.632Z,1.92
2023-03-23T23:47:56.096Z,2.10
2023-03-23T23:50:23.174Z,1.92
2023-03-23T23:52:49.780Z,2.08
2023-03-23T23:55:17.229Z,2.55
2023-03-23T23:57:44.656Z,2.20
